createdAt,value
2019-04-04T00:01:10.579Z,87.46
2019-04-04T00:03:41.858Z,87.31
2019-04-04T00:06:13.222Z,87.37
2019-04-04T00:08:44.615Z,87.26
2019-04-04T00:11:15.925Z,87.55
2019-04-04T00:13:47.270Z,87.83
2019-04-04T00:16:18.573Z,87.93
2019-04-04T00:18:49.906Z,88.01
2019-04-04T00:21:21.201Z,88.03
2019-04-04T00:23:52.506Z,88.04
2019-04-04T00:26:23.814Z,88.30
2019-04-04T00:28:55.165Z,88.43
2019-04-04T00:31:26.602Z,88.54
2019-04-04T00:33:57.978Z,88.36
2019-04-04T00:36:29.339Z,88.37
2019-04-04T00:39:00.924Z,88.32
2019-04-04T00:41:33.792Z,88.12
2019-04-04T00:44:06.739Z,88.39
2019-04-04T00:46:38.077Z,88.77
2019-04-04T00:49:10.959Z,88.59
2019-04-04T00:51:42.429Z,88.60
2019-04-04T00:54:14.011Z,88.63
2019-04-04T00:56:46.888Z,88.65
2019-04-04T00:59:18.961Z,88.55
2019-04-04T01:01:50.298Z,88.49
2019-04-04T01:04:21.532Z,88.38
2019-04-04T01:06:52.770Z,88.12
2019-04-04T01:09:24.140Z,87.81
2019-04-04T01:11:55.496Z,87.53
2019-04-04T01:14:27.161Z,87.48
2019-04-04T01:16:59.953Z,86.95
2019-04-04T01:19:31.494Z,87.02
2019-04-04T01:22:02.744Z,86.56
2019-04-04T01:24:34.229Z,86.74
2019-04-04T01:27:06.321Z,86.06
2019-04-04T01:29:40.923Z,85.40
2019-04-04T01:32:12.466Z,83.76
2019-04-04T01:34:43.738Z,83.93
2019-04-04T01:37:15.160Z,84.78
2019-04-04T01:39:46.508Z,86.25
2019-04-04T01:42:17.805Z,86.26
2019-04-04T01:44:49.099Z,86.07
2019-04-04T01:47:20.395Z,85.93
2019-04-04T01:49:52.661Z,86.20
2019-04-04T01:52:24.028Z,86.51
2019-04-04T01:54:55.374Z,86.37
2019-04-04T01:57:26.631Z,86.29
2019-04-04T01:59:58.058Z,86.13
2019-04-04T02:02:29.355Z,85.76
2019-04-04T02:05:00.640Z,85.91
2019-04-04T02:07:31.955Z,86.11
2019-04-04T02:10:05.304Z,86.67
2019-04-04T02:12:38.513Z,86.63
2019-04-04T02:15:13.771Z,86.68
2019-04-04T02:17:45.097Z,85.41
2019-04-04T02:20:16.513Z,86.32
2019-04-04T02:22:47.883Z,86.59
2019-04-04T02:25:19.251Z,87.11
2019-04-04T02:27:50.560Z,87.16
2019-04-04T02:30:21.834Z,86.83
2019-04-04T02:32:53.185Z,87.02
2019-04-04T02:35:24.554Z,87.02
2019-04-04T02:37:56.197Z,87.04
2019-04-04T02:40:27.580Z,87.13
2019-04-04T02:42:58.876Z,86.89
2019-04-04T02:45:30.183Z,87.00
2019-04-04T02:48:01.514Z,86.99
2019-04-04T02:50:35.562Z,86.70
2019-04-04T02:53:06.735Z,86.23
2019-04-04T02:55:41.610Z,86.66
2019-04-04T02:58:15.253Z,86.37
2019-04-04T03:00:46.857Z,86.15
2019-04-04T03:03:18.276Z,86.52
2019-04-04T03:05:51.972Z,86.39
2019-04-04T03:08:22.899Z,86.35
2019-04-04T03:10:54.334Z,86.48
2019-04-04T03:13:25.679Z,86.72
2019-04-04T03:15:57.048Z,86.50
2019-04-04T03:18:28.332Z,86.62
2019-04-04T03:20:59.607Z,86.05
2019-04-04T03:23:33.863Z,86.49
2019-04-04T03:26:03.921Z,86.74
2019-04-04T03:28:35.369Z,86.55
2019-04-04T03:31:06.701Z,86.30
2019-04-04T03:33:38.259Z,85.54
2019-04-04T03:36:10.628Z,85.25
2019-04-04T03:38:47.155Z,85.24
2019-04-04T03:41:16.811Z,85.40
2019-04-04T03:43:49.100Z,86.06
2019-04-04T03:46:20.781Z,86.25
2019-04-04T03:48:52.191Z,86.52
2019-04-04T03:51:25.956Z,86.36
2019-04-04T03:53:59.125Z,86.19
2019-04-04T03:56:33.254Z,86.18
2019-04-04T03:59:03.750Z,85.47
2019-04-04T04:01:35.528Z,85.47
2019-04-04T04:04:07.111Z,86.15
2019-04-04T04:06:41.299Z,85.95
2019-04-04T04:09:11.447Z,85.85
2019-04-04T04:11:42.921Z,86.07
2019-04-04T04:14:15.297Z,86.44
2019-04-04T04:16:48.274Z,86.86
2019-04-04T04:19:24.048Z,86.41
2019-04-04T04:21:56.860Z,85.88
2019-04-04T04:24:29.533Z,86.12
2019-04-04T04:27:01.402Z,86.14
2019-04-04T04:29:34.320Z,86.42
2019-04-04T04:32:05.732Z,86.23
2019-04-04T04:34:37.212Z,85.82
2019-04-04T04:37:08.681Z,86.47
2019-04-04T04:39:41.438Z,87.16
2019-04-04T04:42:13.021Z,87.45
2019-04-04T04:44:44.252Z,87.42
2019-04-04T04:47:15.617Z,87.53
2019-04-04T04:49:46.922Z,87.45
2019-04-04T04:52:19.167Z,87.20
2019-04-04T04:54:52.335Z,86.81
2019-04-04T04:57:29.911Z,86.64
2019-04-04T04:59:56.565Z,86.29
2019-04-04T05:02:27.920Z,85.76
2019-04-04T05:04:59.391Z,86.20
2019-04-04T05:07:31.471Z,85.58
2019-04-04T05:10:02.843Z,85.83
2019-04-04T05:12:34.245Z,85.35
2019-04-04T05:15:09.458Z,85.90
2019-04-04T05:17:42.092Z,85.76
2019-04-04T05:20:14.068Z,85.94
2019-04-04T05:22:45.600Z,86.19
2019-04-04T05:25:16.813Z,85.59
2019-04-04T05:27:48.132Z,86.19
2019-04-04T05:30:20.435Z,86.42
2019-04-04T05:32:56.042Z,86.16
2019-04-04T05:35:25.141Z,86.72
2019-04-04T05:37:56.448Z,86.72
2019-04-04T05:40:30.506Z,86.89
2019-04-04T05:43:04.792Z,87.34
2019-04-04T05:45:36.322Z,87.65
2019-04-04T05:48:07.626Z,87.75
2019-04-04T05:50:38.883Z,87.62
2019-04-04T05:53:10.990Z,87.70
2019-04-04T05:55:42.484Z,87.73
2019-04-04T05:58:15.044Z,87.70
2019-04-04T06:00:47.156Z,87.55
2019-04-04T06:03:18.528Z,87.41
2019-04-04T06:05:49.967Z,87.58
2019-04-04T06:08:21.492Z,87.69
2019-04-04T06:10:53.766Z,88.04
2019-04-04T06:13:26.958Z,88.22
2019-04-04T06:16:00.124Z,88.43
2019-04-04T06:18:31.410Z,88.64
2019-04-04T06:21:02.753Z,88.40
2019-04-04T06:23:37.187Z,88.40
2019-04-04T06:26:08.531Z,88.06
2019-04-04T06:28:39.912Z,87.31
2019-04-04T06:31:11.207Z,86.87
2019-04-04T06:33:42.487Z,85.86
2019-04-04T06:36:13.769Z,84.81
2019-04-04T06:39:00.197Z,84.40
2019-04-04T06:41:32.395Z,84.40
2019-04-04T06:44:04.247Z,84.14
2019-04-04T06:46:35.542Z,84.92
2019-04-04T06:49:06.887Z,85.01
2019-04-04T06:51:39.300Z,85.07
2019-04-04T06:54:11.640Z,85.33
2019-04-04T06:56:43.836Z,85.48
2019-04-04T06:59:15.151Z,85.03
2019-04-04T07:01:46.509Z,84.58
2019-04-04T07:04:17.846Z,85.08
2019-04-04T07:06:49.144Z,84.97
2019-04-04T07:09:20.394Z,85.01
2019-04-04T07:11:51.611Z,85.39
2019-04-04T07:14:23.038Z,84.61
2019-04-04T07:16:54.413Z,84.60
2019-04-04T07:19:25.797Z,85.01
2019-04-04T07:21:57.009Z,84.75
2019-04-04T07:24:29.035Z,84.30
2019-04-04T07:27:01.344Z,84.64
2019-04-04T07:29:32.599Z,84.43
2019-04-04T07:32:05.166Z,84.74
2019-04-04T07:34:36.503Z,84.15
2019-04-04T07:37:07.731Z,84.67
2019-04-04T07:39:39.072Z,84.47
2019-04-04T07:42:10.357Z,84.69
2019-04-04T07:44:41.634Z,84.56
2019-04-04T07:47:15.772Z,84.79
2019-04-04T07:49:46.903Z,84.74
2019-04-04T07:52:18.131Z,85.03
2019-04-04T07:54:49.407Z,85.12
2019-04-04T07:57:20.615Z,84.56
2019-04-04T07:59:52.021Z,84.69
2019-04-04T08:02:23.348Z,85.17
2019-04-04T08:04:54.701Z,84.68
2019-04-04T08:07:26.088Z,84.62
2019-04-04T08:09:57.296Z,84.81
2019-04-04T08:12:28.616Z,84.76
2019-04-04T08:15:00.031Z,84.34
2019-04-04T08:17:31.306Z,84.64
2019-04-04T08:20:02.590Z,84.37
2019-04-04T08:22:34.000Z,84.83
2019-04-04T08:25:06.005Z,85.29
2019-04-04T08:27:37.225Z,84.27
2019-04-04T08:30:09.211Z,85.22
2019-04-04T08:32:40.599Z,85.11
2019-04-04T08:35:12.199Z,84.80
2019-04-04T08:37:43.466Z,84.57
2019-04-04T08:40:14.888Z,84.57
2019-04-04T08:42:46.245Z,84.84
2019-04-04T08:45:17.607Z,84.45
2019-04-04T08:47:48.857Z,84.64
2019-04-04T08:50:20.085Z,83.91
2019-04-04T08:52:52.458Z,85.20
2019-04-04T08:55:23.684Z,84.74
2019-04-04T08:57:54.941Z,85.47
2019-04-04T09:00:26.157Z,85.25
2019-04-04T09:02:57.527Z,85.20
2019-04-04T09:05:28.745Z,85.03
2019-04-04T09:08:00.035Z,85.39
2019-04-04T09:10:31.241Z,85.03
2019-04-04T09:13:02.508Z,85.86
2019-04-04T09:15:34.965Z,85.73
2019-04-04T09:18:06.398Z,85.83
2019-04-04T09:20:37.612Z,85.31
2019-04-04T09:23:10.088Z,84.84
2019-04-04T09:25:41.411Z,85.69
2019-04-04T09:28:12.893Z,85.79
2019-04-04T09:30:44.173Z,85.81
2019-04-04T09:33:15.589Z,85.83
2019-04-04T09:35:46.947Z,85.86
2019-04-04T09:38:18.347Z,85.94
2019-04-04T09:40:49.642Z,85.56
2019-04-04T09:43:20.861Z,86.14
2019-04-04T09:45:52.171Z,86.48
2019-04-04T09:48:23.450Z,86.32
2019-04-04T09:50:54.806Z,86.06
2019-04-04T09:53:26.121Z,86.18
2019-04-04T09:55:57.501Z,85.60
2019-04-04T09:58:28.865Z,86.19
2019-04-04T10:01:00.339Z,85.98
2019-04-04T10:03:31.767Z,85.94
2019-04-04T10:06:03.268Z,85.71
2019-04-04T10:08:34.644Z,86.25
2019-04-04T10:11:06.159Z,86.37
2019-04-04T10:13:37.619Z,85.71
2019-04-04T10:16:09.215Z,85.79
2019-04-04T10:18:40.571Z,85.71
2019-04-04T10:21:12.577Z,86.01
2019-04-04T10:23:44.023Z,85.40
2019-04-04T10:26:15.490Z,84.79
2019-04-04T10:28:46.884Z,84.80
2019-04-04T10:31:18.215Z,85.35
2019-04-04T10:33:49.534Z,85.72
2019-04-04T10:36:21.038Z,86.57
2019-04-04T10:38:52.329Z,86.20
2019-04-04T10:41:23.691Z,85.22
2019-04-04T10:43:54.951Z,86.01
2019-04-04T10:46:26.376Z,85.82
2019-04-04T10:48:57.917Z,84.83
2019-04-04T10:51:29.311Z,85.35
2019-04-04T10:54:00.595Z,84.41
2019-04-04T10:56:32.823Z,85.66
2019-04-04T10:59:04.329Z,84.46
2019-04-04T11:01:35.549Z,85.15
2019-04-04T11:04:06.948Z,85.05
2019-04-04T11:06:38.303Z,85.38
2019-04-04T11:09:09.904Z,84.76
2019-04-04T11:11:41.189Z,84.27
2019-04-04T11:14:12.682Z,85.91
2019-04-04T11:16:44.117Z,83.06
2019-04-04T11:19:15.339Z,85.35
2019-04-04T11:21:46.624Z,82.65
2019-04-04T11:24:18.030Z,83.45
2019-04-04T11:26:49.332Z,84.53
2019-04-04T11:29:21.506Z,83.88
2019-04-04T11:31:52.842Z,82.32
2019-04-04T11:34:24.203Z,83.52
2019-04-04T11:36:55.409Z,83.50
2019-04-04T11:39:26.745Z,81.74
2019-04-04T11:41:57.965Z,79.89
2019-04-04T11:44:30.819Z,82.93
2019-04-04T11:47:02.263Z,80.28
2019-04-04T11:49:34.666Z,79.24
2019-04-04T11:52:06.050Z,79.57
2019-04-04T11:54:40.112Z,79.24
2019-04-04T11:57:12.252Z,78.93
2019-04-04T11:59:43.531Z,80.29
2019-04-04T12:02:14.745Z,80.16
2019-04-04T12:04:46.079Z,79.90
2019-04-04T12:07:17.374Z,79.73
2019-04-04T12:09:48.768Z,79.78
2019-04-04T12:12:20.096Z,79.92
2019-04-04T12:14:51.454Z,78.90
2019-04-04T12:17:23.987Z,76.99
2019-04-04T12:19:55.227Z,76.78
2019-04-04T12:22:27.131Z,77.30
2019-04-04T12:24:58.905Z,77.89
2019-04-04T12:27:31.864Z,78.67
2019-04-04T12:30:03.338Z,78.82
2019-04-04T12:32:34.702Z,79.02
2019-04-04T12:35:06.732Z,78.81
2019-04-04T12:37:38.150Z,77.33
2019-04-04T12:40:19.671Z,79.08
2019-04-04T12:42:43.187Z,76.85
2019-04-04T12:45:16.241Z,78.19
2019-04-04T12:47:47.587Z,78.06
2019-04-04T12:50:18.942Z,79.07
2019-04-04T12:52:50.351Z,77.57
2019-04-04T12:55:21.637Z,78.07
2019-04-04T12:57:54.049Z,77.90
2019-04-04T13:00:25.409Z,77.59
2019-04-04T13:02:59.604Z,80.01
2019-04-04T13:05:30.820Z,79.33
2019-04-04T13:08:02.157Z,79.63
2019-04-04T13:10:34.453Z,79.93
2019-04-04T13:13:05.938Z,79.10
2019-04-04T13:15:37.176Z,80.51
2019-04-04T13:18:08.639Z,79.25
2019-04-04T13:20:41.571Z,78.60
2019-04-04T13:23:12.914Z,79.91
2019-04-04T13:25:47.251Z,80.35
2019-04-04T13:28:18.707Z,81.30
2019-04-04T13:30:51.052Z,81.20
2019-04-04T13:33:41.329Z,81.52
2019-04-04T13:36:13.497Z,82.81
2019-04-04T13:38:44.823Z,83.27
2019-04-04T13:41:22.218Z,83.16
2019-04-04T13:43:53.708Z,83.24
2019-04-04T13:46:28.080Z,82.30
2019-04-04T13:49:00.376Z,81.67
2019-04-04T13:51:34.850Z,81.27
2019-04-04T13:56:44.706Z,80.77
2019-04-04T13:59:15.976Z,80.33
2019-04-04T14:01:47.457Z,78.01
2019-04-04T14:04:20.296Z,78.34
2019-04-04T14:06:53.622Z,79.94
2019-04-04T14:09:24.957Z,80.63
2019-04-04T14:11:56.366Z,79.77
2019-04-04T14:14:27.665Z,76.09
2019-04-04T14:16:58.922Z,75.91
2019-04-04T14:19:31.641Z,78.06
2019-04-04T14:22:03.166Z,75.21
2019-04-04T14:24:34.582Z,76.33
2019-04-04T14:27:06.058Z,76.77
2019-04-04T14:29:37.561Z,75.54
2019-04-04T14:32:10.018Z,76.14
2019-04-04T14:34:43.387Z,78.32
2019-04-04T14:37:14.889Z,77.54
2019-04-04T14:39:49.231Z,77.60
2019-04-04T14:42:20.443Z,76.23
2019-04-04T14:44:51.710Z,78.41
2019-04-04T14:47:26.330Z,77.65
2019-04-04T14:49:58.857Z,77.51
2019-04-04T14:52:30.123Z,77.02
2019-04-04T14:55:01.426Z,76.74
2019-04-04T14:57:32.690Z,77.28
2019-04-04T15:00:06.851Z,76.37
2019-04-04T15:02:38.221Z,74.06
2019-04-04T15:05:09.676Z,73.69
2019-04-04T15:07:41.000Z,73.14
2019-04-04T15:10:17.343Z,72.83
2019-04-04T15:12:53.172Z,72.31
2019-04-04T15:15:26.265Z,72.83
2019-04-04T15:17:57.637Z,75.36
2019-04-04T15:20:29.088Z,72.72
2019-04-04T15:23:00.675Z,71.19
2019-04-04T15:25:33.971Z,72.57
2019-04-04T15:28:05.396Z,72.95
2019-04-04T15:30:36.805Z,74.72
2019-04-04T15:33:11.036Z,73.30
2019-04-04T15:35:42.454Z,73.88
2019-04-04T15:38:16.804Z,74.73
2019-04-04T15:40:51.377Z,75.27
2019-04-04T15:43:22.771Z,75.60
2019-04-04T15:45:55.824Z,75.74
2019-04-04T15:48:30.269Z,76.16
2019-04-04T15:51:05.977Z,76.22
2019-04-04T15:53:37.257Z,77.17
2019-04-04T15:56:10.977Z,77.16
2019-04-04T15:58:42.333Z,77.59
2019-04-04T16:01:18.379Z,76.49
2019-04-04T16:04:07.949Z,76.33
2019-04-04T16:06:41.025Z,76.98
2019-04-04T16:09:15.288Z,75.72
2019-04-04T16:11:49.681Z,76.12
2019-04-04T16:14:20.288Z,76.31
2019-04-04T16:16:52.123Z,76.01
2019-04-04T16:19:28.140Z,76.86
2019-04-04T16:22:01.259Z,78.15
2019-04-04T16:24:35.185Z,77.80
2019-04-04T16:27:09.344Z,77.61
2019-04-04T16:29:40.705Z,77.81
2019-04-04T16:32:11.993Z,76.43
2019-04-04T16:34:44.924Z,77.95
2019-04-04T16:37:16.396Z,77.85
2019-04-04T16:39:47.597Z,76.99
2019-04-04T16:42:18.926Z,77.08
2019-04-04T16:44:50.151Z,76.73
2019-04-04T16:47:21.474Z,76.89
2019-04-04T16:49:52.755Z,77.82
2019-04-04T16:52:24.102Z,78.04
2019-04-04T16:55:01.505Z,77.08
2019-04-04T16:57:43.475Z,77.52
2019-04-04T17:00:17.203Z,77.87
2019-04-04T17:02:48.689Z,77.49
2019-04-04T17:05:20.160Z,77.55
2019-04-04T17:07:51.441Z,77.98
2019-04-04T17:10:22.872Z,77.35
2019-04-04T17:12:55.187Z,77.61
2019-04-04T17:15:26.553Z,76.87
2019-04-04T17:17:58.020Z,78.05
2019-04-04T17:20:29.561Z,77.79
2019-04-04T17:23:01.137Z,77.55
2019-04-04T17:25:32.521Z,77.98
2019-04-04T17:28:04.572Z,78.02
2019-04-04T17:30:38.115Z,78.83
2019-04-04T17:33:09.583Z,78.19
2019-04-04T17:35:40.912Z,77.75
2019-04-04T17:38:12.343Z,78.23
2019-04-04T17:40:43.622Z,78.03
2019-04-04T17:43:15.191Z,78.35
2019-04-04T17:45:46.565Z,78.75
2019-04-04T17:48:17.867Z,78.33
2019-04-04T17:50:49.389Z,78.70
2019-04-04T17:53:22.088Z,77.83
2019-04-04T17:55:55.442Z,78.52
2019-04-04T17:58:27.726Z,78.84
2019-04-04T18:00:59.108Z,79.12
2019-04-04T18:03:30.488Z,79.69
2019-04-04T18:06:01.799Z,79.98
2019-04-04T18:08:34.289Z,80.32
2019-04-04T18:11:05.716Z,80.34
2019-04-04T18:13:44.698Z,80.92
2019-04-04T18:16:27.822Z,81.08
2019-04-04T18:18:58.491Z,80.56
2019-04-04T18:21:33.068Z,80.53
2019-04-04T18:24:06.408Z,79.55
2019-04-04T18:26:39.023Z,79.40
2019-04-04T18:29:10.487Z,79.90
2019-04-04T18:31:41.862Z,79.45
2019-04-04T18:34:17.210Z,79.94
2019-04-04T18:36:49.748Z,79.85
2019-04-04T18:39:21.807Z,80.14
2019-04-04T18:41:53.281Z,79.73
2019-04-04T18:44:24.715Z,80.46
2019-04-04T18:46:56.609Z,80.41
2019-04-04T18:49:28.496Z,80.55
2019-04-04T18:52:01.646Z,80.72
2019-04-04T18:54:35.143Z,80.63
2019-04-04T18:57:06.585Z,80.49
2019-04-04T18:59:38.535Z,81.00
2019-04-04T19:02:10.054Z,80.73
2019-04-04T19:04:41.422Z,80.66
2019-04-04T19:07:12.847Z,80.45
2019-04-04T19:09:44.332Z,80.64
2019-04-04T19:12:15.933Z,80.70
2019-04-04T19:14:47.269Z,80.34
2019-04-04T19:17:18.529Z,80.52
2019-04-04T19:20:13.827Z,80.54
2019-04-04T19:22:45.221Z,81.02
2019-04-04T19:25:16.847Z,81.36
2019-04-04T19:27:48.340Z,80.69
2019-04-04T19:30:20.312Z,80.75
2019-04-04T19:32:51.727Z,80.88
2019-04-04T19:35:23.342Z,80.94
2019-04-04T19:38:00.386Z,81.05
2019-04-04T19:40:29.243Z,80.89
2019-04-04T19:43:20.586Z,80.73
2019-04-04T19:45:52.099Z,80.89
2019-04-04T19:48:23.544Z,80.98
2019-04-04T19:50:55.012Z,80.71
2019-04-04T19:53:26.521Z,80.37
2019-04-04T19:55:58.101Z,80.82
2019-04-04T19:58:29.435Z,81.20
2019-04-04T20:01:01.005Z,81.61
2019-04-04T20:03:32.581Z,81.36
2019-04-04T20:06:04.982Z,81.81
2019-04-04T20:08:36.483Z,82.13
2019-04-04T20:11:07.872Z,82.32
2019-04-04T20:13:39.803Z,82.38
2019-04-04T20:16:12.430Z,82.45
2019-04-04T20:18:44.112Z,82.54
2019-04-04T20:21:15.801Z,82.45
2019-04-04T20:23:47.097Z,82.28
2019-04-04T20:26:19.488Z,82.64
2019-04-04T20:28:50.879Z,82.86
2019-04-04T20:31:22.393Z,83.01
2019-04-04T20:34:01.552Z,84.11
2019-04-04T20:36:26.853Z,84.39
2019-04-04T20:38:58.115Z,84.77
2019-04-04T20:41:31.337Z,84.79
2019-04-04T20:44:02.810Z,85.00
2019-04-04T20:46:34.135Z,84.70
2019-04-04T20:49:05.585Z,84.52
2019-04-04T20:51:36.975Z,84.49
2019-04-04T20:54:08.294Z,84.67
2019-04-04T20:56:39.601Z,84.40
2019-04-04T20:59:10.906Z,83.68
2019-04-04T21:01:42.334Z,83.24
2019-04-04T21:04:13.813Z,83.19
2019-04-04T21:06:45.194Z,83.26
2019-04-04T21:09:16.491Z,83.32
2019-04-04T21:11:47.886Z,83.48
2019-04-04T21:14:19.288Z,83.93
2019-04-04T21:16:50.787Z,84.24
2019-04-04T21:19:22.129Z,84.65
2019-04-04T21:21:53.489Z,84.76
2019-04-04T21:24:24.840Z,84.58
2019-04-04T21:26:57.517Z,84.56
2019-04-04T21:29:28.892Z,84.29
2019-04-04T21:32:00.231Z,84.23
2019-04-04T21:34:31.650Z,84.47
2019-04-04T21:37:02.937Z,84.41
2019-04-04T21:39:34.254Z,84.51
2019-04-04T21:42:05.974Z,84.14
2019-04-04T21:44:37.333Z,82.99
2019-04-04T21:47:08.608Z,82.88
2019-04-04T21:49:39.864Z,82.57
2019-04-04T21:52:11.101Z,82.31
2019-04-04T21:54:42.388Z,81.62
2019-04-04T21:57:14.754Z,81.21
2019-04-04T21:59:46.106Z,81.58
2019-04-04T22:02:17.814Z,82.14
2019-04-04T22:04:49.096Z,82.66
2019-04-04T22:07:20.510Z,82.75
2019-04-04T22:09:51.859Z,82.94
2019-04-04T22:12:23.265Z,83.27
2019-04-04T22:14:54.486Z,83.55
2019-04-04T22:17:25.813Z,84.14
2019-04-04T22:19:57.061Z,85.05
2019-04-04T22:22:28.446Z,85.93
2019-04-04T22:24:59.704Z,86.28
2019-04-04T22:27:31.121Z,86.53
2019-04-04T22:30:02.365Z,86.63
2019-04-04T22:32:33.864Z,86.72
2019-04-04T22:35:07.108Z,86.78
2019-04-04T22:37:38.454Z,86.88
2019-04-04T22:40:09.766Z,86.80
2019-04-04T22:42:41.275Z,86.68
2019-04-04T22:45:13.671Z,86.34
2019-04-04T22:47:45.069Z,86.26
2019-04-04T22:50:16.431Z,86.04
2019-04-04T22:52:49.069Z,85.80
2019-04-04T22:55:20.462Z,85.32
2019-04-04T22:57:51.738Z,84.54
2019-04-04T23:00:23.037Z,83.98
2019-04-04T23:02:54.463Z,83.47
2019-04-04T23:05:25.769Z,83.59
2019-04-04T23:07:57.201Z,83.61
2019-04-04T23:10:28.506Z,83.69
2019-04-04T23:12:59.793Z,84.07
2019-04-04T23:15:31.113Z,84.32
2019-04-04T23:18:02.460Z,84.42
2019-04-04T23:20:33.792Z,84.14
2019-04-04T23:23:05.153Z,83.39
2019-04-04T23:25:36.459Z,82.82
2019-04-04T23:28:08.195Z,81.69
2019-04-04T23:30:39.492Z,81.68
2019-04-04T23:33:10.837Z,81.17
2019-04-04T23:35:42.046Z,81.60
2019-04-04T23:38:13.457Z,81.53
2019-04-04T23:40:44.684Z,81.78
2019-04-04T23:43:16.025Z,82.11
2019-04-04T23:45:47.261Z,82.44
2019-04-04T23:48:18.611Z,82.37
2019-04-04T23:50:49.843Z,82.16
2019-04-04T23:53:22.121Z,81.94
2019-04-04T23:55:53.450Z,82.19
2019-04-04T23:58:24.808Z,82.11
